createdAt,value
2023-04-10T00:00:38.142Z,18.17
2023-04-10T00:01:41.284Z,17.85
2023-04-10T00:02:44.947Z,16.77
2023-04-10T00:03:47.949Z,19.55
2023-04-10T00:04:50.729Z,15.23
2023-04-10T00:05:54.878Z,19.40
2023-04-10T00:06:57.539Z,19.05
2023-04-10T00:08:00.518Z,19.58
2023-04-10T00:09:03.081Z,17.70
2023-04-10T00:10:06.295Z,19.17
2023-04-10T00:11:08.848Z,17.55
2023-04-10T00:12:11.506Z,17.90
2023-04-10T00:13:14.932Z,16.33
2023-04-10T00:14:23.149Z,19.05
2023-04-10T00:15:25.707Z,20.92
2023-04-10T00:16:28.210Z,20.13
2023-04-10T00:17:31.204Z,18.02
2023-04-10T00:18:33.683Z,19.55
2023-04-10T00:19:36.305Z,16.67
2023-04-10T00:20:38.814Z,18.92
2023-04-10T00:21:41.667Z,17.77
2023-04-10T00:22:44.220Z,16.33
2023-04-10T00:23:46.742Z,16.67
2023-04-10T00:24:49.344Z,19.33
2023-04-10T00:25:51.835Z,19.08
2023-04-10T00:26:54.285Z,16.25
2023-04-10T00:27:56.783Z,18.02
2023-04-10T00:28:59.427Z,15.95
2023-04-10T00:30:02.781Z,16.70
2023-04-10T00:31:06.012Z,17.52
2023-04-10T00:32:08.664Z,13.80
2023-04-10T00:33:11.222Z,16.85
2023-04-10T00:34:14.204Z,17.60
2023-04-10T00:35:16.856Z,16.35
2023-04-10T00:36:19.844Z,18.20
2023-04-10T00:37:22.500Z,17.67
2023-04-10T00:38:25.064Z,17.55
2023-04-10T00:39:27.759Z,17.60
2023-04-10T00:40:30.778Z,16.17
2023-04-10T00:41:33.444Z,16.20
2023-04-10T00:42:36.043Z,15.52
2023-04-10T00:43:38.583Z,17.90
2023-04-10T00:44:41.533Z,17.10
2023-04-10T00:45:44.617Z,16.67
2023-04-10T00:46:47.098Z,17.90
2023-04-10T00:47:49.801Z,17.00
2023-04-10T00:48:53.207Z,17.20
2023-04-10T00:49:55.810Z,21.58
2023-04-10T00:50:58.248Z,18.98
2023-04-10T00:52:00.852Z,18.70
2023-04-10T00:53:03.562Z,18.38
2023-04-10T00:54:06.665Z,16.83
2023-04-10T00:55:12.385Z,17.88
2023-04-10T00:56:15.686Z,16.38
2023-04-10T00:57:18.145Z,13.93
2023-04-10T00:58:20.602Z,14.60
2023-04-10T00:59:23.222Z,15.52
2023-04-10T01:00:26.009Z,17.10
2023-04-10T01:01:28.878Z,20.35
2023-04-10T01:02:32.468Z,15.95
2023-04-10T01:03:35.445Z,15.73
2023-04-10T01:04:38.697Z,15.82
2023-04-10T01:06:04.308Z,17.70
2023-04-10T01:07:26.138Z,16.52
2023-04-10T01:09:06.336Z,14.20
2023-04-10T01:10:12.565Z,16.67
2023-04-10T01:11:35.583Z,16.38
2023-04-10T01:13:16.795Z,15.80
2023-04-10T01:16:09.731Z,18.83
2023-04-10T01:17:39.652Z,17.48
2023-04-10T01:18:46.809Z,15.93
2023-04-10T01:20:01.214Z,17.88
2023-04-10T01:21:05.836Z,15.95
2023-04-10T01:22:11.896Z,16.92
2023-04-10T01:23:33.110Z,17.75
2023-04-10T01:26:04.325Z,15.95
2023-04-10T01:27:15.646Z,17.40
2023-04-10T01:28:40.612Z,19.92
2023-04-10T01:29:47.240Z,17.02
2023-04-10T01:30:54.198Z,17.02
2023-04-10T01:32:12.333Z,17.80
2023-04-10T01:33:19.289Z,25.20
2023-04-10T01:34:37.436Z,17.35
2023-04-10T01:35:42.251Z,17.20
2023-04-10T01:36:52.171Z,19.20
2023-04-10T01:37:55.452Z,17.35
2023-04-10T01:38:58.724Z,13.68
2023-04-10T01:40:09.057Z,19.33
2023-04-10T01:41:12.189Z,17.35
2023-04-10T01:42:16.431Z,16.15
2023-04-10T01:43:20.525Z,16.10
2023-04-10T01:44:30.293Z,17.73
2023-04-10T01:45:33.706Z,18.50
2023-04-10T01:46:37.997Z,16.23
2023-04-10T01:47:40.837Z,15.40
2023-04-10T01:48:44.142Z,19.45
2023-04-10T01:49:47.821Z,17.50
2023-04-10T01:50:51.033Z,16.90
2023-04-10T01:51:58.348Z,21.20
2023-04-10T01:53:04.565Z,19.02
2023-04-10T01:54:07.402Z,15.88
2023-04-10T01:55:10.376Z,15.85
2023-04-10T01:56:19.763Z,19.48
2023-04-10T01:57:22.938Z,17.15
2023-04-10T01:58:31.307Z,13.65
2023-04-10T01:59:34.673Z,17.35
2023-04-10T02:00:40.032Z,16.83
2023-04-10T02:01:42.790Z,15.77
2023-04-10T02:02:45.914Z,15.68
2023-04-10T02:03:48.861Z,17.08
2023-04-10T02:04:51.980Z,17.77
2023-04-10T02:06:02.725Z,20.88
2023-04-10T02:07:45.792Z,16.70
2023-04-10T02:08:55.756Z,19.73
2023-04-10T02:10:10.084Z,15.05
2023-04-10T02:11:29.451Z,19.38
2023-04-10T02:12:39.603Z,17.60
2023-04-10T02:13:42.855Z,17.73
2023-04-10T02:14:47.228Z,18.35
2023-04-10T02:15:51.181Z,21.38
2023-04-10T02:16:55.644Z,14.73
2023-04-10T02:17:59.487Z,23.45
2023-04-10T02:19:02.719Z,18.75
2023-04-10T02:20:07.940Z,20.17
2023-04-10T02:21:10.734Z,18.00
2023-04-10T02:22:13.311Z,17.75
2023-04-10T02:23:17.400Z,16.20
2023-04-10T02:24:21.190Z,19.50
2023-04-10T02:25:23.655Z,17.25
2023-04-10T02:26:26.256Z,18.42
2023-04-10T02:27:33.248Z,19.30
2023-04-10T02:28:39.304Z,18.00
2023-04-10T02:29:42.477Z,16.63
2023-04-10T02:30:44.964Z,20.55
2023-04-10T02:31:52.408Z,17.17
2023-04-10T02:32:55.831Z,15.57
2023-04-10T02:33:58.410Z,13.82
2023-04-10T02:35:04.480Z,15.10
2023-04-10T02:36:07.741Z,17.42
2023-04-10T02:37:10.645Z,18.60
2023-04-10T02:38:14.481Z,17.02
2023-04-10T02:39:18.213Z,18.48
2023-04-10T02:40:24.151Z,17.40
2023-04-10T02:41:33.045Z,19.95
2023-04-10T02:42:38.803Z,17.45
2023-04-10T02:43:41.786Z,25.42
2023-04-10T02:44:44.479Z,15.70
2023-04-10T02:45:47.346Z,18.85
2023-04-10T02:46:56.231Z,16.73
2023-04-10T02:47:59.305Z,14.57
2023-04-10T02:49:02.889Z,14.75
2023-04-10T02:50:06.095Z,16.83
2023-04-10T02:51:12.324Z,16.20
2023-04-10T02:52:14.831Z,16.95
2023-04-10T02:53:17.647Z,14.05
2023-04-10T02:54:20.605Z,16.23
2023-04-10T02:55:23.071Z,16.90
2023-04-10T02:56:25.822Z,14.45
2023-04-10T02:57:29.013Z,19.33
2023-04-10T02:58:31.650Z,16.75
2023-04-10T02:59:35.377Z,16.00
2023-04-10T03:00:40.558Z,16.48
2023-04-10T03:01:52.853Z,17.88
2023-04-10T03:02:56.338Z,20.95
2023-04-10T03:04:03.207Z,24.25
2023-04-10T03:05:11.520Z,26.13
2023-04-10T03:06:14.145Z,29.88
2023-04-10T03:07:19.208Z,34.70
2023-04-10T03:08:22.188Z,32.30
2023-04-10T03:09:24.998Z,37.40
2023-04-10T03:10:29.496Z,28.02
2023-04-10T03:11:31.989Z,28.77
2023-04-10T03:12:34.606Z,26.88
2023-04-10T03:13:37.123Z,26.35
2023-04-10T03:14:40.758Z,24.27
2023-04-10T03:15:43.584Z,30.67
2023-04-10T03:16:47.795Z,40.45
2023-04-10T03:17:50.686Z,31.20
2023-04-10T03:18:54.065Z,27.48
2023-04-10T03:19:56.568Z,25.42
2023-04-10T03:20:59.146Z,23.15
2023-04-10T03:22:02.278Z,25.50
2023-04-10T03:23:07.970Z,25.02
2023-04-10T03:24:10.476Z,22.63
2023-04-10T03:25:13.000Z,22.20
2023-04-10T03:26:15.802Z,22.48
2023-04-10T03:27:18.354Z,19.17
2023-04-10T03:28:23.692Z,21.25
2023-04-10T03:29:26.382Z,19.10
2023-04-10T03:30:31.073Z,17.10
2023-04-10T03:31:33.795Z,17.77
2023-04-10T03:32:37.106Z,15.57
2023-04-10T03:33:39.640Z,20.50
2023-04-10T03:34:42.675Z,20.73
2023-04-10T03:35:47.497Z,16.23
2023-04-10T03:36:50.126Z,17.50
2023-04-10T03:37:52.522Z,19.27
2023-04-10T03:38:56.173Z,21.17
2023-04-10T03:39:58.698Z,20.42
2023-04-10T03:41:01.214Z,18.77
2023-04-10T03:42:06.577Z,15.85
2023-04-10T03:43:09.321Z,19.10
2023-04-10T03:44:12.009Z,17.35
2023-04-10T03:45:14.624Z,19.48
2023-04-10T03:46:17.162Z,14.63
2023-04-10T03:47:20.762Z,15.10
2023-04-10T03:48:28.483Z,19.42
2023-04-10T03:49:31.333Z,16.58
2023-04-10T03:50:39.934Z,14.05
2023-04-10T03:51:42.413Z,19.63
2023-04-10T03:52:45.414Z,17.27
2023-04-10T03:53:51.853Z,20.83
2023-04-10T03:54:54.924Z,15.45
2023-04-10T03:56:03.280Z,13.77
2023-04-10T03:57:06.112Z,18.40
2023-04-10T03:58:08.988Z,12.98
2023-04-10T03:59:12.617Z,13.23
2023-04-10T04:00:17.534Z,16.35
2023-04-10T04:01:23.013Z,13.77
2023-04-10T04:02:46.492Z,13.43
2023-04-10T04:03:54.255Z,17.25
2023-04-10T04:05:15.763Z,16.55
2023-04-10T04:06:21.105Z,14.52
2023-04-10T04:07:46.477Z,14.35
2023-04-10T04:09:12.730Z,15.43
2023-04-10T04:10:38.302Z,15.27
2023-04-10T04:12:10.239Z,14.20
2023-04-10T04:13:31.231Z,15.10
2023-04-10T04:14:46.873Z,16.73
2023-04-10T04:16:11.449Z,16.50
2023-04-10T04:17:23.421Z,16.20
2023-04-10T04:18:51.464Z,11.80
2023-04-10T04:20:17.120Z,15.63
2023-04-10T04:21:42.548Z,16.55
2023-04-10T04:23:08.019Z,14.60
2023-04-10T04:24:10.540Z,13.57
2023-04-10T04:25:33.203Z,14.93
2023-04-10T04:26:54.291Z,14.30
2023-04-10T04:28:23.261Z,15.80
2023-04-10T04:29:54.985Z,18.15
2023-04-10T04:31:09.376Z,15.63
2023-04-10T04:32:30.352Z,13.50
2023-04-10T04:33:53.400Z,15.30
2023-04-10T04:35:28.352Z,13.77
2023-04-10T04:36:53.770Z,15.57
2023-04-10T04:38:23.203Z,12.38
2023-04-10T04:39:37.092Z,13.73
2023-04-10T04:40:39.547Z,12.73
2023-04-10T04:42:02.240Z,13.23
2023-04-10T04:43:43.267Z,11.40
2023-04-10T04:45:12.072Z,12.63
2023-04-10T04:46:41.465Z,14.55
2023-04-10T04:48:18.071Z,12.43
2023-04-10T04:49:41.311Z,16.27
2023-04-10T04:50:54.768Z,13.95
2023-04-10T04:52:17.479Z,14.60
2023-04-10T04:53:37.029Z,15.90
2023-04-10T04:54:58.055Z,12.02
2023-04-10T04:56:18.467Z,12.07
2023-04-10T04:57:39.618Z,14.27
2023-04-10T04:59:20.711Z,10.93
2023-04-10T05:00:39.677Z,16.95
2023-04-10T05:01:57.584Z,11.63
2023-04-10T05:03:10.088Z,13.88
2023-04-10T05:04:32.418Z,11.32
2023-04-10T05:05:52.261Z,12.95
2023-04-10T05:07:03.471Z,16.95
2023-04-10T05:08:29.117Z,11.57
2023-04-10T05:09:57.590Z,17.20
2023-04-10T05:11:34.996Z,14.73
2023-04-10T05:13:17.409Z,11.30
2023-04-10T05:14:38.563Z,15.73
2023-04-10T05:15:56.978Z,18.45
2023-04-10T05:17:15.207Z,13.90
2023-04-10T05:18:24.013Z,14.27
2023-04-10T05:19:59.226Z,13.18
2023-04-10T05:21:17.035Z,12.30
2023-04-10T05:22:38.045Z,14.98
2023-04-10T05:24:09.535Z,13.88
2023-04-10T05:25:47.241Z,14.02
2023-04-10T05:27:06.748Z,14.55
2023-04-10T05:29:36.294Z,16.48
2023-04-10T05:30:47.920Z,11.85
2023-04-10T05:32:09.065Z,16.95
2023-04-10T05:33:34.437Z,11.05
2023-04-10T05:34:43.554Z,13.70
2023-04-10T05:36:03.197Z,11.85
2023-04-10T05:37:16.631Z,10.05
2023-04-10T05:38:32.147Z,11.15
2023-04-10T05:40:00.947Z,11.30
2023-04-10T05:41:03.307Z,10.82
2023-04-10T05:42:24.117Z,10.38
2023-04-10T05:43:49.963Z,12.95
2023-04-10T05:45:18.719Z,11.82
2023-04-10T05:46:41.585Z,12.30
2023-04-10T05:47:52.903Z,11.20
2023-04-10T05:49:14.163Z,10.55
2023-04-10T05:50:39.523Z,12.80
2023-04-10T05:52:07.893Z,11.43
2023-04-10T05:53:32.839Z,14.38
2023-04-10T05:54:53.974Z,11.57
2023-04-10T05:56:02.672Z,9.15
2023-04-10T05:57:13.986Z,8.48
2023-04-10T05:58:36.974Z,9.63
2023-04-10T06:00:00.862Z,9.82
2023-04-10T06:01:39.138Z,10.93
2023-04-10T06:02:42.326Z,10.75
2023-04-10T06:03:52.529Z,9.95
2023-04-10T06:04:56.398Z,9.32
2023-04-10T06:06:02.336Z,8.68
2023-04-10T06:07:06.055Z,10.23
2023-04-10T06:08:08.962Z,8.20
2023-04-10T06:09:11.518Z,9.55
2023-04-10T06:10:14.035Z,8.80
2023-04-10T06:11:16.574Z,9.35
2023-04-10T06:12:23.360Z,8.80
2023-04-10T06:13:27.661Z,8.50
2023-04-10T06:14:35.381Z,7.57
2023-04-10T06:15:38.115Z,9.38
2023-04-10T06:16:41.077Z,9.57
2023-04-10T06:17:44.648Z,13.15
2023-04-10T06:18:47.872Z,9.02
2023-04-10T06:19:50.493Z,8.45
2023-04-10T06:20:53.300Z,7.32
2023-04-10T06:21:55.835Z,8.48
2023-04-10T06:22:59.427Z,6.70
2023-04-10T06:24:02.416Z,9.40
2023-04-10T06:25:05.762Z,8.35
2023-04-10T06:26:08.294Z,6.22
2023-04-10T06:27:12.351Z,7.32
2023-04-10T06:28:15.565Z,6.78
2023-04-10T06:29:20.663Z,7.55
2023-04-10T06:30:23.584Z,6.88
2023-04-10T06:31:27.412Z,7.40
2023-04-10T06:32:30.675Z,7.43
2023-04-10T06:33:36.911Z,9.77
2023-04-10T06:34:41.686Z,12.02
2023-04-10T06:35:45.641Z,7.65
2023-04-10T06:36:48.331Z,7.90
2023-04-10T06:37:50.932Z,6.50
2023-04-10T06:38:53.812Z,6.13
2023-04-10T06:40:22.862Z,6.70
2023-04-10T06:41:25.380Z,7.93
2023-04-10T06:42:30.411Z,5.93
2023-04-10T06:43:38.975Z,6.75
2023-04-10T06:44:41.816Z,5.82
2023-04-10T06:45:44.446Z,6.53
2023-04-10T06:46:47.137Z,7.07
2023-04-10T06:47:49.898Z,6.72
2023-04-10T06:48:52.634Z,6.60
2023-04-10T06:49:55.433Z,7.80
2023-04-10T06:51:00.486Z,5.85
2023-04-10T06:52:02.983Z,5.63
2023-04-10T06:53:05.871Z,6.78
2023-04-10T06:54:08.427Z,6.00
2023-04-10T06:55:11.166Z,8.10
2023-04-10T06:56:14.044Z,6.75
2023-04-10T06:57:17.214Z,6.72
2023-04-10T06:58:19.900Z,8.38
2023-04-10T06:59:22.552Z,6.05
2023-04-10T07:00:25.711Z,6.60
2023-04-10T07:01:28.585Z,5.85
2023-04-10T07:02:31.360Z,5.18
2023-04-10T07:03:34.000Z,5.63
2023-04-10T07:04:36.838Z,6.60
2023-04-10T07:05:41.610Z,6.00
2023-04-10T07:06:44.902Z,5.78
2023-04-10T07:07:47.872Z,5.63
2023-04-10T07:08:51.649Z,5.93
2023-04-10T07:09:54.199Z,5.20
2023-04-10T07:10:58.452Z,5.53
2023-04-10T07:12:01.329Z,6.85
2023-04-10T07:13:03.933Z,6.45
2023-04-10T07:14:06.762Z,6.40
2023-04-10T07:15:09.683Z,4.90
2023-04-10T07:16:12.615Z,4.40
2023-04-10T07:17:15.449Z,6.25
2023-04-10T07:18:18.093Z,5.03
2023-04-10T07:19:21.065Z,6.82
2023-04-10T07:20:23.728Z,6.78
2023-04-10T07:21:27.410Z,4.45
2023-04-10T07:22:29.937Z,5.25
2023-04-10T07:23:32.781Z,4.95
2023-04-10T07:24:35.464Z,4.43
2023-04-10T07:25:37.949Z,4.30
2023-04-10T07:26:40.524Z,3.67
2023-04-10T07:27:43.189Z,4.75
2023-04-10T07:28:45.853Z,6.32
2023-04-10T07:29:48.496Z,4.20
2023-04-10T07:30:51.716Z,5.10
2023-04-10T07:31:54.238Z,4.00
2023-04-10T07:32:57.528Z,4.40
2023-04-10T07:34:00.926Z,5.47
2023-04-10T07:35:03.608Z,4.32
2023-04-10T07:36:07.060Z,5.22
2023-04-10T07:37:09.712Z,6.25
2023-04-10T07:38:13.230Z,4.68
2023-04-10T07:39:16.094Z,4.82
2023-04-10T07:40:18.964Z,4.25
2023-04-10T07:41:22.289Z,5.03
2023-04-10T07:42:24.867Z,4.25
2023-04-10T07:43:27.381Z,4.82
2023-04-10T07:44:29.923Z,5.43
2023-04-10T07:45:32.680Z,4.10
2023-04-10T07:46:35.239Z,4.70
2023-04-10T07:47:38.004Z,3.92
2023-04-10T07:48:41.053Z,3.83
2023-04-10T07:49:43.769Z,4.10
2023-04-10T07:50:46.364Z,5.70
2023-04-10T07:51:49.106Z,3.85
2023-04-10T07:52:51.706Z,4.32
2023-04-10T07:53:54.355Z,3.88
2023-04-10T07:54:56.831Z,5.00
2023-04-10T07:55:59.380Z,3.53
2023-04-10T07:57:01.926Z,3.85
2023-04-10T07:58:04.529Z,3.42
2023-04-10T07:59:07.065Z,3.40
2023-04-10T08:00:10.213Z,3.30
2023-04-10T08:01:20.903Z,4.00
2023-04-10T08:02:23.667Z,3.22
2023-04-10T08:03:26.990Z,3.60
2023-04-10T08:04:29.799Z,3.45
2023-04-10T08:05:32.812Z,3.55
2023-04-10T08:06:35.375Z,3.50
2023-04-10T08:07:38.374Z,3.03
2023-04-10T08:08:42.085Z,3.70
2023-04-10T08:09:44.753Z,4.38
2023-04-10T08:10:47.331Z,3.80
2023-04-10T08:11:49.859Z,4.25
2023-04-10T08:12:52.378Z,2.92
2023-04-10T08:13:56.644Z,4.15
2023-04-10T08:14:59.251Z,3.28
2023-04-10T08:16:01.950Z,3.63
2023-04-10T08:17:04.726Z,4.70
2023-04-10T08:18:07.470Z,3.42
2023-04-10T08:19:10.018Z,3.88
2023-04-10T08:20:12.979Z,3.80
2023-04-10T08:21:15.551Z,5.95
2023-04-10T08:22:18.006Z,5.15
2023-04-10T08:23:21.126Z,4.88
2023-04-10T08:24:23.716Z,3.97
2023-04-10T08:25:26.257Z,3.55
2023-04-10T08:26:29.414Z,3.58
2023-04-10T08:27:32.093Z,4.35
2023-04-10T08:28:34.758Z,4.63
2023-04-10T08:29:37.384Z,3.80
2023-04-10T08:30:40.021Z,3.80
2023-04-10T08:31:42.568Z,4.00
2023-04-10T08:32:45.163Z,4.38
2023-04-10T08:33:48.169Z,3.63
2023-04-10T08:34:51.394Z,3.22
2023-04-10T08:35:54.019Z,3.47
2023-04-10T08:36:57.490Z,3.78
2023-04-10T08:38:12.777Z,3.60
2023-04-10T08:39:17.008Z,3.33
2023-04-10T08:40:19.555Z,3.17
2023-04-10T08:41:22.084Z,4.43
2023-04-10T08:42:25.346Z,2.83
2023-04-10T08:43:28.073Z,3.17
2023-04-10T08:44:30.856Z,5.15
2023-04-10T08:45:34.016Z,2.63
2023-04-10T08:46:37.538Z,2.80
2023-04-10T08:47:42.090Z,3.17
2023-04-10T08:48:54.142Z,2.35
2023-04-10T08:49:57.990Z,3.40
2023-04-10T08:51:01.678Z,3.38
2023-04-10T08:52:09.815Z,4.47
2023-04-10T08:53:14.190Z,4.40
2023-04-10T08:54:25.058Z,2.38
2023-04-10T08:55:27.598Z,4.00
2023-04-10T08:56:31.384Z,2.78
2023-04-10T08:57:33.965Z,4.43
2023-04-10T08:58:36.632Z,3.00
2023-04-10T08:59:39.198Z,3.08
2023-04-10T09:00:41.803Z,3.25
2023-04-10T09:01:44.825Z,2.25
2023-04-10T09:02:47.524Z,2.75
2023-04-10T09:03:50.320Z,4.45
2023-04-10T09:04:56.144Z,2.88
2023-04-10T09:06:04.962Z,3.58
2023-04-10T09:07:07.406Z,1.70
2023-04-10T09:08:11.284Z,2.22
2023-04-10T09:09:13.753Z,3.03
2023-04-10T09:10:16.398Z,2.63
2023-04-10T09:11:18.921Z,4.25
2023-04-10T09:12:21.410Z,2.40
2023-04-10T09:13:40.815Z,2.70
2023-04-10T09:14:43.877Z,2.33
2023-04-10T09:15:57.609Z,5.28
2023-04-10T09:17:13.824Z,3.00
2023-04-10T09:18:16.277Z,2.85
2023-04-10T09:19:32.230Z,4.00
2023-04-10T09:20:34.899Z,5.13
2023-04-10T09:21:37.459Z,3.10
2023-04-10T09:22:39.969Z,2.33
2023-04-10T09:23:44.634Z,4.93
2023-04-10T09:24:48.430Z,3.13
2023-04-10T09:25:51.331Z,5.25
2023-04-10T09:26:54.743Z,2.15
2023-04-10T09:28:02.533Z,3.15
2023-04-10T09:29:06.808Z,4.53
2023-04-10T09:30:09.769Z,2.75
2023-04-10T09:31:28.993Z,4.30
2023-04-10T09:32:42.810Z,3.55
2023-04-10T09:33:46.283Z,2.53
2023-04-10T09:34:57.185Z,2.88
2023-04-10T09:36:04.244Z,3.67
2023-04-10T09:37:06.880Z,3.47
2023-04-10T09:38:20.070Z,2.58
2023-04-10T09:39:30.525Z,3.05
2023-04-10T09:40:33.447Z,1.85
2023-04-10T09:41:36.005Z,3.75
2023-04-10T09:42:38.530Z,2.03
2023-04-10T09:43:43.461Z,1.95
2023-04-10T09:44:46.026Z,2.50
2023-04-10T09:45:53.780Z,3.55
2023-04-10T09:46:56.748Z,1.65
2023-04-10T09:48:03.590Z,4.10
2023-04-10T09:49:09.677Z,5.38
2023-04-10T09:50:16.802Z,2.42
2023-04-10T09:51:31.733Z,1.77
2023-04-10T09:52:35.662Z,3.15
2023-04-10T09:53:50.160Z,3.38
2023-04-10T09:54:57.120Z,4.57
2023-04-10T09:56:00.148Z,2.80
2023-04-10T09:57:03.326Z,3.03
2023-04-10T09:58:06.479Z,2.72
2023-04-10T09:59:09.517Z,2.60
2023-04-10T10:00:14.432Z,3.15
2023-04-10T10:01:17.128Z,3.50
2023-04-10T10:02:21.639Z,2.45
2023-04-10T10:03:25.653Z,3.53
2023-04-10T10:04:29.082Z,3.03
2023-04-10T10:05:31.929Z,5.03
2023-04-10T10:06:34.782Z,2.40
2023-04-10T10:07:37.427Z,5.47
2023-04-10T10:08:40.302Z,3.95
2023-04-10T10:09:44.341Z,2.67
2023-04-10T10:10:53.820Z,4.38
2023-04-10T10:11:56.604Z,3.35
2023-04-10T10:13:02.059Z,2.70
2023-04-10T10:14:09.794Z,3.78
2023-04-10T10:15:21.507Z,2.58
2023-04-10T10:16:43.748Z,5.32
2023-04-10T10:17:53.595Z,3.88
2023-04-10T10:20:05.705Z,1.45
2023-04-10T10:21:09.659Z,2.45
2023-04-10T10:22:12.480Z,2.63
2023-04-10T10:23:16.129Z,2.95
2023-04-10T10:24:21.658Z,1.85
2023-04-10T10:25:24.873Z,4.05
2023-04-10T10:26:29.211Z,3.50
2023-04-10T10:27:34.795Z,2.30
2023-04-10T10:28:38.185Z,4.47
2023-04-10T10:29:42.091Z,4.07
2023-04-10T10:30:45.369Z,2.67
2023-04-10T10:31:48.268Z,3.03
2023-04-10T10:32:51.685Z,1.95
2023-04-10T10:33:54.590Z,2.85
2023-04-10T10:34:57.783Z,4.43
2023-04-10T10:36:01.050Z,1.85
2023-04-10T10:37:05.495Z,3.13
2023-04-10T10:38:08.479Z,4.45
2023-04-10T10:39:14.071Z,2.90
2023-04-10T10:40:30.306Z,3.25
2023-04-10T10:42:03.338Z,4.97
2023-04-10T10:43:22.309Z,2.55
2023-04-10T10:44:40.018Z,3.53
2023-04-10T10:45:51.746Z,4.15
2023-04-10T10:47:19.926Z,2.20
2023-04-10T10:48:22.464Z,2.72
2023-04-10T10:49:55.036Z,2.25
2023-04-10T10:51:02.220Z,4.55
2023-04-10T10:52:05.255Z,3.00
2023-04-10T10:53:07.670Z,2.83
2023-04-10T10:54:29.542Z,2.20
2023-04-10T10:55:37.023Z,1.90
2023-04-10T10:56:39.699Z,5.25
2023-04-10T10:57:48.929Z,4.03
2023-04-10T10:58:57.686Z,2.47
2023-04-10T11:00:00.302Z,6.45
2023-04-10T11:01:09.288Z,6.35
2023-04-10T11:02:16.739Z,3.15
2023-04-10T11:03:19.549Z,2.53
2023-04-10T11:04:49.547Z,5.10
2023-04-10T11:06:00.879Z,1.83
2023-04-10T11:07:03.448Z,2.42
2023-04-10T11:08:06.092Z,3.67
2023-04-10T11:09:08.520Z,1.83
2023-04-10T11:10:11.193Z,2.40
2023-04-10T11:11:17.364Z,5.05
2023-04-10T11:12:22.104Z,3.50
2023-04-10T11:13:24.813Z,1.73
2023-04-10T11:14:27.523Z,3.80
2023-04-10T11:15:30.188Z,4.03
2023-04-10T11:16:34.137Z,1.52
2023-04-10T11:17:54.260Z,2.88
2023-04-10T11:19:14.031Z,6.75
2023-04-10T11:20:22.276Z,2.13
2023-04-10T11:21:26.813Z,3.97
2023-04-10T11:22:29.331Z,3.10
2023-04-10T11:23:31.990Z,5.63
2023-04-10T11:25:01.986Z,3.72
2023-04-10T11:26:04.695Z,2.03
2023-04-10T11:27:07.781Z,4.13
2023-04-10T11:28:10.242Z,2.95
2023-04-10T11:29:27.940Z,6.68
2023-04-10T11:30:35.458Z,4.90
2023-04-10T11:31:38.335Z,1.45
2023-04-10T11:32:44.079Z,2.97
2023-04-10T11:33:48.298Z,5.72
2023-04-10T11:34:51.533Z,4.35
2023-04-10T11:35:55.202Z,3.85
2023-04-10T11:36:57.825Z,3.88
2023-04-10T11:38:14.817Z,2.92
2023-04-10T11:39:19.108Z,4.15
2023-04-10T11:40:21.710Z,2.30
2023-04-10T11:41:32.268Z,2.58
2023-04-10T11:42:34.810Z,3.30
2023-04-10T11:43:37.667Z,2.85
2023-04-10T11:44:40.889Z,2.47
2023-04-10T11:45:43.501Z,2.40
2023-04-10T11:46:47.426Z,2.30
2023-04-10T11:47:54.416Z,6.20
2023-04-10T11:49:01.621Z,4.95
2023-04-10T11:50:04.405Z,7.50
2023-04-10T11:51:08.689Z,5.15
2023-04-10T11:52:11.344Z,6.80
2023-04-10T11:53:21.673Z,5.80
2023-04-10T11:54:28.564Z,4.28
2023-04-10T11:55:40.624Z,4.03
2023-04-10T11:56:57.964Z,4.57
2023-04-10T11:58:01.460Z,6.30
2023-04-10T11:59:08.022Z,3.70
2023-04-10T12:00:11.126Z,2.65
2023-04-10T12:01:14.866Z,5.57
2023-04-10T12:02:17.567Z,3.58
2023-04-10T12:03:38.109Z,6.80
2023-04-10T12:05:50.594Z,3.38
2023-04-10T12:06:56.058Z,7.00
2023-04-10T12:07:58.747Z,3.40
2023-04-10T12:09:01.416Z,3.17
2023-04-10T12:10:04.322Z,5.30
2023-04-10T12:11:07.876Z,2.40
2023-04-10T12:12:11.143Z,2.25
2023-04-10T12:13:26.968Z,3.67
2023-04-10T12:14:35.133Z,3.15
2023-04-10T12:15:38.740Z,3.72
2023-04-10T12:16:42.043Z,4.97
2023-04-10T12:17:45.177Z,5.40
2023-04-10T12:18:49.267Z,4.63
2023-04-10T12:19:51.954Z,2.58
2023-04-10T12:20:56.698Z,3.35
2023-04-10T12:22:00.344Z,5.80
2023-04-10T12:23:03.338Z,5.90
2023-04-10T12:24:06.112Z,2.85
2023-04-10T12:25:12.603Z,5.15
2023-04-10T12:26:17.181Z,4.43
2023-04-10T12:27:27.715Z,2.97
2023-04-10T12:28:30.307Z,2.97
2023-04-10T12:29:32.954Z,2.92
2023-04-10T12:30:35.667Z,5.28
2023-04-10T12:31:38.177Z,3.45
2023-04-10T12:32:41.178Z,2.38
2023-04-10T12:33:46.843Z,2.58
2023-04-10T12:34:58.230Z,3.17
2023-04-10T12:36:01.756Z,6.13
2023-04-10T12:37:04.662Z,6.57
2023-04-10T12:38:07.154Z,3.35
2023-04-10T12:39:23.228Z,3.80
2023-04-10T12:40:25.757Z,6.53
2023-04-10T12:41:33.229Z,4.93
2023-04-10T12:42:41.141Z,2.70
2023-04-10T12:43:44.864Z,5.35
2023-04-10T12:45:01.101Z,5.78
2023-04-10T12:46:04.984Z,2.10
2023-04-10T12:47:07.594Z,2.30
2023-04-10T12:48:10.194Z,2.33
2023-04-10T12:49:17.027Z,7.00
2023-04-10T12:50:23.534Z,4.38
2023-04-10T12:51:48.901Z,2.28
2023-04-10T12:53:07.911Z,4.45
2023-04-10T12:54:10.713Z,3.95
2023-04-10T12:55:21.081Z,3.28
2023-04-10T12:56:25.127Z,3.47
2023-04-10T12:57:27.763Z,4.47
2023-04-10T12:58:31.633Z,4.90
2023-04-10T12:59:34.250Z,6.68
2023-04-10T13:00:37.014Z,2.53
2023-04-10T13:01:40.000Z,3.35
2023-04-10T13:02:43.274Z,4.05
2023-04-10T13:03:48.386Z,2.00
2023-04-10T13:04:51.346Z,5.57
2023-04-10T13:05:54.112Z,3.85
2023-04-10T13:06:56.619Z,3.47
2023-04-10T13:07:59.146Z,3.72
2023-04-10T13:09:02.302Z,5.15
2023-04-10T13:10:06.039Z,3.50
2023-04-10T13:11:08.620Z,3.03
2023-04-10T13:12:11.625Z,7.10
2023-04-10T13:13:14.609Z,4.03
2023-04-10T13:14:17.861Z,4.25
2023-04-10T13:15:20.373Z,4.95
2023-04-10T13:16:22.972Z,3.70
2023-04-10T13:17:25.889Z,4.80
2023-04-10T13:18:28.721Z,5.53
2023-04-10T13:19:31.394Z,4.90
2023-04-10T13:20:38.216Z,4.63
2023-04-10T13:21:40.741Z,5.63
2023-04-10T13:22:43.449Z,3.15
2023-04-10T13:23:47.088Z,3.78
2023-04-10T13:24:49.789Z,5.63
2023-04-10T13:25:53.677Z,2.70
2023-04-10T13:26:58.334Z,2.80
2023-04-10T13:28:01.876Z,2.97
2023-04-10T13:29:04.405Z,8.10
2023-04-10T13:30:07.650Z,4.43
2023-04-10T13:31:10.707Z,3.25
2023-04-10T13:32:13.225Z,2.58
2023-04-10T13:33:15.805Z,2.65
2023-04-10T13:34:18.386Z,4.38
2023-04-10T13:35:21.900Z,3.90
2023-04-10T13:36:24.434Z,2.95
2023-04-10T13:37:27.199Z,3.40
2023-04-10T13:38:29.665Z,4.25
2023-04-10T13:39:32.417Z,2.30
2023-04-10T13:40:34.888Z,8.07
2023-04-10T13:41:37.432Z,3.35
2023-04-10T13:42:41.949Z,6.63
2023-04-10T13:43:45.233Z,7.13
2023-04-10T13:44:47.920Z,3.33
2023-04-10T13:45:50.319Z,2.70
2023-04-10T13:46:53.328Z,3.58
2023-04-10T13:47:56.008Z,7.50
2023-04-10T13:48:58.782Z,3.38
2023-04-10T13:50:01.613Z,4.57
2023-04-10T13:51:04.252Z,2.63
2023-04-10T13:52:06.793Z,2.28
2023-04-10T13:53:10.292Z,2.63
2023-04-10T13:54:12.810Z,3.60
2023-04-10T13:55:15.390Z,2.70
2023-04-10T13:56:18.030Z,7.07
2023-04-10T13:57:21.044Z,3.30
2023-04-10T13:58:23.654Z,5.80
2023-04-10T13:59:26.238Z,2.47
2023-04-10T14:00:28.684Z,2.33
2023-04-10T14:01:31.392Z,3.17
2023-04-10T14:02:34.129Z,2.45
2023-04-10T14:03:36.744Z,2.05
2023-04-10T14:04:42.724Z,8.70
2023-04-10T14:05:45.742Z,2.13
2023-04-10T14:06:49.407Z,5.55
2023-04-10T14:07:56.961Z,6.97
2023-04-10T14:08:59.556Z,7.40
2023-04-10T14:10:02.656Z,2.15
2023-04-10T14:11:05.493Z,2.58
2023-04-10T14:12:08.321Z,4.47
2023-04-10T14:13:11.620Z,2.20
2023-04-10T14:14:14.204Z,4.70
2023-04-10T14:15:16.882Z,5.55
2023-04-10T14:16:19.861Z,2.47
2023-04-10T14:17:22.622Z,3.17
2023-04-10T14:18:25.233Z,1.60
2023-04-10T14:19:27.669Z,3.60
2023-04-10T14:20:30.134Z,4.18
2023-04-10T14:21:32.739Z,7.60
2023-04-10T14:22:35.398Z,2.63
2023-04-10T14:23:37.849Z,2.53
2023-04-10T14:24:40.362Z,4.13
2023-04-10T14:25:42.826Z,1.95
2023-04-10T14:26:45.272Z,4.93
2023-04-10T14:27:47.900Z,5.22
2023-04-10T14:28:50.508Z,3.40
2023-04-10T14:29:54.934Z,1.98
2023-04-10T14:30:57.547Z,2.42
2023-04-10T14:32:00.252Z,3.38
2023-04-10T14:33:02.948Z,7.18
2023-04-10T14:34:05.595Z,6.40
2023-04-10T14:35:08.572Z,3.13
2023-04-10T14:36:11.161Z,4.90
2023-04-10T14:37:15.403Z,2.80
2023-04-10T14:38:18.226Z,4.75
2023-04-10T14:39:20.832Z,5.80
2023-04-10T14:40:23.488Z,5.53
2023-04-10T14:41:26.095Z,5.18
2023-04-10T14:42:29.038Z,2.50
2023-04-10T14:43:31.632Z,3.55
2023-04-10T14:44:34.285Z,5.53
2023-04-10T14:45:36.803Z,3.33